Time;durP1;ratioP1;P1;durP2;ratioP2;P2;SDS_P1;SDS_P2;PMS_P1;PMS_P2;Temp;Humidity;BMP_temperature;BMP_pressure;BME280_temperature;BME280_humidity;BME280_pressure;Samples;Min_cycle;Max_cycle;Signal;HPM_P1;HPM_P2
2023/12/06 00:01:27;;;;;;;3.45;1.13;;;;;;;3.04;100.00;98189.41;4995542;28;20271;-74
2023/12/06 00:03:52;;;;;;;2.95;1.00;;;;;;;2.93;100.00;98171.88;4987862;28;20331;-74
2023/12/06 00:06:17;;;;;;;2.22;1.08;;;;;;;3.05;100.00;98191.06;5003808;28;20351;-74
2023/12/06 00:08:43;;;;;;;1.25;0.93;;;;;;;2.94;100.00;98172.72;5003107;28;20049;-75
2023/12/06 00:11:08;;;;;;;1.63;0.80;;;;;;;3.11;100.00;98193.03;5011893;28;20025;-74
2023/12/06 00:13:33;;;;;;;1.90;1.02;;;;;;;2.99;100.00;98175.72;5010561;28;20030;-75
2023/12/06 00:15:58;;;;;;;3.03;1.00;;;;;;;3.03;100.00;98185.06;5008631;28;20054;-75
2023/12/06 00:18:24;;;;;;;2.20;0.90;;;;;;;3.02;100.00;98178.88;5002923;28;20027;-75
2023/12/06 00:20:49;;;;;;;4.22;1.40;;;;;;;3.00;100.00;98180.06;4987430;28;20026;-75
2023/12/06 00:23:14;;;;;;;3.35;1.80;;;;;;;3.04;100.00;98176.88;5003009;28;20045;-75
2023/12/06 00:25:40;;;;;;;4.10;2.28;;;;;;;3.15;100.00;98197.06;5003083;28;20031;-76
2023/12/06 00:28:05;;;;;;;4.82;2.28;;;;;;;3.01;100.00;98181.72;4985956;28;20030;-76
2023/12/06 00:30:31;;;;;;;4.20;1.55;;;;;;;3.10;100.00;98202.06;4982517;28;20027;-75
2023/12/06 00:32:56;;;;;;;1.83;1.00;;;;;;;3.16;100.00;98195.22;4985838;28;20258;-75
2023/12/06 00:35:21;;;;;;;3.40;1.40;;;;;;;3.08;100.00;98201.41;5004198;28;20018;-74
2023/12/06 00:37:46;;;;;;;2.80;0.95;;;;;;;2.96;100.00;98182.25;5018877;28;20068;-74
2023/12/06 00:40:12;;;;;;;1.65;1.00;;;;;;;2.93;100.00;98184.41;4989813;28;20202;-74
2023/12/06 00:42:37;;;;;;;2.13;1.20;;;;;;;3.03;100.00;98201.09;4992983;28;20026;-74
2023/12/06 00:45:03;;;;;;;4.45;1.92;;;;;;;3.02;100.00;98199.44;5002958;28;20030;-75
2023/12/06 00:47:28;;;;;;;1.88;1.52;;;;;;;2.96;100.00;98186.72;5002936;28;20228;-74
2023/12/06 00:49:54;;;;;;;1.88;1.23;;;;;;;3.00;100.00;98201.44;4985920;28;20197;-74
2023/12/06 00:52:19;;;;;;;1.70;0.98;;;;;;;2.96;100.00;98187.59;5005381;28;20030;-74
2023/12/06 00:54:45;;;;;;;2.08;1.00;;;;;;;2.98;100.00;98198.09;5023777;28;20022;-74
2023/12/06 00:57:11;;;;;;;1.20;0.73;;;;;;;3.00;100.00;98206.78;5031267;22;20078;-76
2023/12/06 00:59:36;;;;;;;1.95;1.10;;;;;;;3.02;100.00;98216.28;4985808;28;20118;-76
2023/12/06 01:02:01;;;;;;;2.00;0.80;;;;;;;2.99;100.00;98210.47;4967301;28;20081;-76
2023/12/06 01:04:26;;;;;;;1.85;0.68;;;;;;;2.93;100.00;98201.25;4987148;28;20034;-76
2023/12/06 01:06:52;;;;;;;1.25;0.90;;;;;;;3.04;100.00;98216.97;4971611;28;20403;-76
2023/12/06 01:09:17;;;;;;;2.22;1.60;;;;;;;3.02;100.00;98218.13;5005389;28;20064;-76
2023/12/06 01:11:42;;;;;;;1.73;1.23;;;;;;;3.02;100.00;98216.28;5005243;28;20030;-76
2023/12/06 01:14:07;;;;;;;2.05;1.08;;;;;;;3.00;100.00;98223.63;5005909;28;20018;-76
2023/12/06 01:16:33;;;;;;;2.88;1.65;;;;;;;3.07;100.00;98229.97;5006072;28;20033;-76
2023/12/06 01:18:58;;;;;;;2.53;1.63;;;;;;;3.03;100.00;98220.63;5005279;28;20157;-76
2023/12/06 01:21:23;;;;;;;2.33;1.38;;;;;;;3.13;100.00;98230.31;5005693;28;20036;-76
2023/12/06 01:23:49;;;;;;;2.78;1.90;;;;;;;3.17;100.00;98223.59;4988214;28;20034;-77
2023/12/06 01:26:14;;;;;;;4.50;1.70;;;;;;;3.17;100.00;98231.63;5005804;28;20022;-76
2023/12/06 01:28:39;;;;;;;1.88;1.08;;;;;;;3.16;100.00;98238.81;5005377;28;20026;-76
2023/12/06 01:31:05;;;;;;;1.13;0.88;;;;;;;3.10;100.00;98233.31;4987226;28;20045;-76
2023/12/06 01:33:30;;;;;;;2.10;1.25;;;;;;;3.19;100.00;98234.97;5005071;28;20019;-76
2023/12/06 01:35:56;;;;;;;5.03;1.90;;;;;;;3.13;100.00;98239.16;5005139;28;20022;-76
2023/12/06 01:38:21;;;;;;;2.97;1.73;;;;;;;3.12;100.00;98236.63;5005238;28;20245;-76
2023/12/06 01:40:46;;;;;;;1.52;1.05;;;;;;;3.16;100.00;98252.16;4987118;28;20262;-76
2023/12/06 01:43:12;;;;;;;1.58;0.98;;;;;;;3.15;100.00;98247.84;5005214;28;20026;-76
2023/12/06 01:45:37;;;;;;;1.90;0.95;;;;;;;3.16;100.00;98254.84;5005175;28;20333;-76
2023/12/06 01:48:03;;;;;;;3.55;0.95;;;;;;;3.16;100.00;98256.69;5005411;28;20025;-76
2023/12/06 01:50:31;;;;;;;1.20;0.70;;;;;;;3.14;100.00;98262.19;5004521;28;20037;-76
2023/12/06 01:52:59;;;;;;;0.95;0.47;;;;;;;3.07;100.00;98255.88;5004919;28;20056;-76
2023/12/06 01:55:24;;;;;;;1.60;0.80;;;;;;;3.12;100.00;98247.31;5004841;28;20054;-76
2023/12/06 01:57:51;;;;;;;2.47;1.75;;;;;;;3.11;100.00;98245.66;5004609;28;20037;-76
2023/12/06 02:00:17;;;;;;;3.60;1.48;;;;;;;3.11;100.00;98262.53;5004117;28;20036;-76
2023/12/06 02:02:42;;;;;;;2.17;1.17;;;;;;;3.13;100.00;98254.34;4987475;28;20030;-76
2023/12/06 02:05:09;;;;;;;1.67;1.00;;;;;;;3.14;100.00;98258.69;5004447;28;20041;-76
2023/12/06 02:07:35;;;;;;;1.65;0.90;;;;;;;3.10;100.00;98255.53;5003146;28;20030;-76
2023/12/06 02:10:00;;;;;;;1.15;0.60;;;;;;;3.15;100.00;98265.72;5004093;28;20077;-76
2023/12/06 02:12:26;;;;;;;1.38;0.50;;;;;;;3.09;100.00;98264.53;5001386;28;20041;-76
2023/12/06 02:14:52;;;;;;;1.08;0.70;;;;;;;3.13;100.00;98273.91;4983302;28;20030;-77
2023/12/06 02:17:18;;;;;;;0.90;0.63;;;;;;;3.07;100.00;98263.88;5002551;28;20037;-76
2023/12/06 02:19:44;;;;;;;1.88;0.93;;;;;;;3.20;100.00;98282.09;4986824;28;20063;-77
2023/12/06 02:22:11;;;;;;;3.35;2.10;;;;;;;3.13;100.00;98263.22;5004204;28;20361;-76
2023/12/06 02:24:38;;;;;;;2.88;2.38;;;;;;;3.17;100.00;98279.72;5004173;28;20046;-76
2023/12/06 02:27:03;;;;;;;2.33;1.80;;;;;;;3.17;100.00;98277.91;5004112;28;20030;-77
2023/12/06 02:29:28;;;;;;;0.80;0.60;;;;;;;3.13;100.00;98270.41;4986407;28;20219;-76
2023/12/06 02:31:54;;;;;;;2.67;0.90;;;;;;;3.14;100.00;98272.88;4986195;28;20026;-76
2023/12/06 02:34:25;;;;;;;1.20;0.70;;;;;;;3.21;100.00;98284.56;4986348;28;20029;-76
2023/12/06 02:36:57;;;;;;;0.98;0.50;;;;;;;3.21;100.00;98275.72;5002433;28;20030;-76
2023/12/06 02:39:26;;;;;;;0.57;0.57;;;;;;;3.21;100.00;98281.91;5003233;28;20105;-76
2023/12/06 02:41:51;;;;;;;3.22;0.55;;;;;;;3.19;100.00;98278.56;4986222;28;20026;-76
2023/12/06 02:44:17;;;;;;;1.63;0.80;;;;;;;3.17;100.00;98274.38;4986417;28;20030;-76
2023/12/06 02:46:43;;;;;;;1.85;1.40;;;;;;;3.12;100.00;98274.06;5003696;28;20031;-76
2023/12/06 02:49:08;;;;;;;3.30;2.05;;;;;;;3.12;100.00;98274.06;5003880;28;20080;-76
2023/12/06 02:51:33;;;;;;;2.38;2.00;;;;;;;3.08;100.00;98260.22;4998661;28;20322;-76
2023/12/06 02:53:59;;;;;;;4.55;0.98;;;;;;;3.08;100.00;98262.88;5003228;28;20022;-76
2023/12/06 02:56:24;;;;;;;1.73;0.55;;;;;;;3.13;100.00;98259.72;4999282;28;20033;-76
2023/12/06 02:58:50;;;;;;;2.35;1.88;;;;;;;3.17;100.00;98255.66;4992876;28;20323;-76
2023/12/06 03:01:15;;;;;;;1.55;1.20;;;;;;;3.19;100.00;98262.50;5010357;28;20026;-76
2023/12/06 03:03:40;;;;;;;1.70;1.05;;;;;;;3.16;100.00;98265.53;5003702;28;20022;-76
2023/12/06 03:06:06;;;;;;;0.65;0.40;;;;;;;3.17;100.00;98272.56;5003242;28;20215;-76
2023/12/06 03:08:31;;;;;;;0.80;0.55;;;;;;;3.19;100.00;98273.22;5003129;28;20173;-76
2023/12/06 03:10:56;;;;;;;0.82;0.50;;;;;;;3.13;100.00;98260.53;5002405;28;20072;-76
2023/12/06 03:13:21;;;;;;;1.10;0.50;;;;;;;3.09;100.00;98264.53;4968294;28;20038;-76
2023/12/06 03:15:47;;;;;;;0.98;0.50;;;;;;;3.06;100.00;98265.72;4974327;28;20022;-76
2023/12/06 03:18:12;;;;;;;0.88;0.40;;;;;;;3.07;100.00;98255.88;5003198;28;20030;-76
2023/12/06 03:20:37;;;;;;;1.30;0.93;;;;;;;3.12;100.00;98268.72;4985425;28;20030;-76
2023/12/06 03:23:03;;;;;;;0.68;0.65;;;;;;;3.11;100.00;98267.88;4982640;28;20031;-76
2023/12/06 03:25:28;;;;;;;1.02;0.70;;;;;;;3.16;100.00;98276.22;4985534;28;20101;-76
2023/12/06 03:27:54;;;;;;;3.47;1.20;;;;;;;3.15;100.00;98269.22;4985842;28;20022;-76
2023/12/06 03:30:20;;;;;;;1.77;1.13;;;;;;;3.19;100.00;98270.53;5002550;28;20026;-76
2023/12/06 03:32:45;;;;;;;3.28;1.10;;;;;;;3.20;100.00;98269.56;5002639;28;20141;-76
2023/12/06 03:35:10;;;;;;;1.02;0.75;;;;;;;3.23;100.00;98277.22;5002803;28;20030;-76
2023/12/06 03:37:35;;;;;;;0.70;0.50;;;;;;;3.21;100.00;98260.50;5002668;28;20026;-76
2023/12/06 03:40:01;;;;;;;1.58;0.50;;;;;;;3.37;100.00;98269.50;5002447;28;20034;-77
2023/12/06 03:42:26;;;;;;;0.47;0.32;;;;;;;3.35;100.00;98258.16;5002009;28;20065;-77
2023/12/06 03:44:51;;;;;;;1.60;1.40;;;;;;;3.34;100.00;98264.50;4985313;28;20319;-76
2023/12/06 03:47:17;;;;;;;1.80;1.58;;;;;;;3.33;100.00;98271.72;4985350;28;20022;-76
2023/12/06 03:49:42;;;;;;;3.92;2.00;;;;;;;3.33;100.00;98279.72;5002561;28;20030;-76
2023/12/06 03:52:09;;;;;;;2.08;1.70;;;;;;;3.29;100.00;98262.34;4978901;28;20034;-77
2023/12/06 03:54:34;;;;;;;5.03;1.00;;;;;;;3.24;100.00;98267.38;5003072;28;20026;-76
2023/12/06 03:56:59;;;;;;;0.82;0.60;;;;;;;3.12;100.00;98258.03;4997704;28;20098;-77
2023/12/06 03:59:25;;;;;;;1.42;1.20;;;;;;;3.15;100.00;98266.56;4983049;28;20014;-76
2023/12/06 04:01:50;;;;;;;2.67;2.00;;;;;;;3.14;100.00;98272.88;4979173;28;20030;-76
2023/12/06 04:04:15;;;;;;;2.40;1.15;;;;;;;3.17;100.00;98272.56;5002503;28;20037;-76
2023/12/06 04:06:40;;;;;;;1.63;0.88;;;;;;;3.14;100.00;98267.53;5003797;28;20033;-76
2023/12/06 04:09:06;;;;;;;1.15;0.70;;;;;;;3.11;100.00;98272.41;5002657;28;20034;-79
2023/12/06 04:11:32;;;;;;;0.75;0.60;;;;;;;3.12;100.00;98282.94;4980368;28;20327;-79
2023/12/06 04:13:59;;;;;;;1.23;0.90;;;;;;;3.08;100.00;98273.56;4999910;28;20043;-78
2023/12/06 04:16:24;;;;;;;1.38;0.90;;;;;;;3.00;100.00;98270.91;4991156;28;20030;-78
2023/12/06 04:18:49;;;;;;;1.27;0.70;;;;;;;3.10;100.00;98279.59;5001656;28;20319;-78
2023/12/06 04:21:16;;;;;;;1.10;0.70;;;;;;;3.24;100.00;98283.41;5001972;28;20057;-78
2023/12/06 04:23:41;;;;;;;4.05;3.10;;;;;;;3.23;100.00;98290.59;5002799;28;20030;-78
2023/12/06 04:26:07;;;;;;;3.75;2.45;;;;;;;3.24;100.00;98289.56;5002753;28;20223;-79
2023/12/06 04:28:32;;;;;;;2.33;1.52;;;;;;;3.18;100.00;98284.91;4984651;28;20041;-78
2023/12/06 04:30:57;;;;;;;3.28;0.90;;;;;;;3.22;100.00;98293.41;4989146;28;20026;-78
2023/12/06 04:33:22;;;;;;;3.28;1.38;;;;;;;3.20;100.00;98295.47;4989683;28;20022;-78
2023/12/06 04:35:48;;;;;;;1.70;1.10;;;;;;;3.20;100.00;98295.47;5006605;28;20379;-78
2023/12/06 04:38:13;;;;;;;3.17;1.13;;;;;;;3.20;100.00;98296.28;4995527;28;20034;-78
2023/12/06 04:40:39;;;;;;;0.80;0.60;;;;;;;3.22;100.00;98296.09;4994962;28;20035;-78
2023/12/06 04:43:04;;;;;;;3.65;0.90;;;;;;;3.26;100.00;98294.75;4987708;28;20251;-79
2023/12/06 04:45:29;;;;;;;2.33;1.63;;;;;;;3.26;100.00;98300.94;5003945;28;20034;-78
2023/12/06 04:47:55;;;;;;;4.30;1.52;;;;;;;3.27;100.00;98288.41;5006345;28;20038;-78
2023/12/06 04:50:20;;;;;;;4.32;1.05;;;;;;;3.29;100.00;98311.28;4993446;28;20030;-78
2023/12/06 04:52:45;;;;;;;0.80;0.70;;;;;;;3.30;100.00;98301.44;5002706;28;20033;-78
2023/12/06 04:55:10;;;;;;;1.77;0.60;;;;;;;3.20;100.00;98292.78;4988737;28;20053;-78
2023/12/06 04:57:36;;;;;;;1.83;0.98;;;;;;;3.26;100.00;98314.31;4996773;28;20041;-79
2023/12/06 05:00:04;;;;;;;0.88;0.70;;;;;;;3.32;100.00;98315.47;5002572;28;20026;-77
2023/12/06 05:02:29;;;;;;;1.98;1.00;;;;;;;3.38;100.00;98319.28;4986484;28;20219;-78
2023/12/06 05:04:54;;;;;;;3.25;0.40;;;;;;;3.37;100.00;98314.97;5005126;28;20026;-79
2023/12/06 05:07:20;;;;;;;3.85;0.77;;;;;;;3.35;100.00;98316.97;5000329;28;20129;-79
2023/12/06 05:09:45;;;;;;;1.50;0.85;;;;;;;3.37;100.00;98318.47;4983789;28;20036;-78
2023/12/06 05:12:10;;;;;;;5.15;3.03;;;;;;;3.33;100.00;98302.94;5007317;28;20038;-77
2023/12/06 05:14:36;;;;;;;7.28;3.45;;;;;;;3.33;100.00;98314.47;4995955;28;20323;-77
2023/12/06 05:17:01;;;;;;;4.55;2.70;;;;;;;3.37;100.00;98314.97;4992915;28;20098;-77
2023/12/06 05:19:26;;;;;;;3.33;2.20;;;;;;;3.42;100.00;98315.28;5005673;28;20026;-79
2023/12/06 05:21:53;;;;;;;2.35;1.50;;;;;;;3.36;100.00;98308.78;4984075;28;20033;-77
2023/12/06 05:24:18;;;;;;;2.50;1.60;;;;;;;3.43;100.00;98320.50;4994677;28;20098;-79
2023/12/06 05:26:46;;;;;;;3.45;1.98;;;;;;;3.43;100.00;98324.97;4977022;28;20033;-82
2023/12/06 05:29:11;;;;;;;4.03;1.70;;;;;;;3.33;100.00;98309.13;4988545;28;20018;-79
2023/12/06 05:31:36;;;;;;;2.28;1.55;;;;;;;3.35;100.00;98311.63;4989257;28;20251;-80
2023/12/06 05:36:45;;;;;;;1.42;1.33;;;;;;;3.37;100.00;98320.31;5007588;28;20076;-80
2023/12/06 05:39:11;;;;;;;2.13;1.77;;;;;;;3.27;100.00;98304.44;4989088;28;20026;-80
2023/12/06 05:41:37;;;;;;;2.55;1.73;;;;;;;3.11;100.00;98273.22;5006592;28;20018;-79
2023/12/06 05:44:05;;;;;;;2.95;1.20;;;;;;;3.38;100.00;98319.28;5006493;28;20026;-79
2023/12/06 05:46:30;;;;;;;2.30;1.23;;;;;;;3.32;100.00;98309.28;5000508;28;20066;-78
2023/12/06 05:48:55;;;;;;;2.28;1.10;;;;;;;3.19;100.00;98294.59;4989048;28;20031;-82
2023/12/06 05:51:21;;;;;;;1.75;1.13;;;;;;;3.26;100.00;98314.31;4986508;28;20042;-78
2023/12/06 05:53:46;;;;;;;2.05;1.33;;;;;;;3.34;100.00;98320.66;4988249;28;20391;-75
2023/12/06 05:56:11;;;;;;;2.85;1.60;;;;;;;3.27;100.00;98310.66;4997139;28;20069;-79
2023/12/06 05:58:39;;;;;;;1.55;1.10;;;;;;;3.22;100.00;98310.31;4984592;28;20089;-79
2023/12/06 06:01:04;;;;;;;2.85;1.38;;;;;;;3.29;100.00;98321.16;4993707;28;20200;-76
2023/12/06 06:03:29;;;;;;;2.95;1.60;;;;;;;3.31;100.00;98323.69;5005456;28;20033;-78
2023/12/06 06:05:55;;;;;;;5.60;2.03;;;;;;;3.32;100.00;98326.16;4985995;28;20034;-78
2023/12/06 06:08:20;;;;;;;4.20;2.78;;;;;;;3.35;100.00;98319.63;5008821;28;20026;-78
2023/12/06 06:10:45;;;;;;;3.45;1.80;;;;;;;3.33;100.00;98325.19;5002042;28;20031;-81
2023/12/06 06:13:10;;;;;;;3.05;1.60;;;;;;;3.35;100.00;98328.50;4989280;28;20224;-79
2023/12/06 06:15:36;;;;;;;2.60;1.40;;;;;;;3.21;100.00;98311.31;4991306;28;20019;-82
2023/12/06 06:18:05;;;;;;;2.75;1.60;;;;;;;3.42;100.00;98331.34;4993106;28;20022;-78
2023/12/06 06:20:30;;;;;;;4.30;1.15;;;;;;;3.47;100.00;98331.66;5005541;28;20038;-81
2023/12/06 06:22:56;;;;;;;5.82;1.50;;;;;;;3.39;100.00;98319.13;5008974;28;20204;-76
2023/12/06 06:25:21;;;;;;;2.55;1.58;;;;;;;3.48;100.00;98331.50;4983548;28;20125;-79
2023/12/06 06:27:47;;;;;;;4.75;2.03;;;;;;;3.48;100.00;98325.31;5004956;28;20015;-81
2023/12/06 06:30:13;;;;;;;4.15;1.92;;;;;;;3.57;100.00;98337.66;4977394;28;20018;-78
2023/12/06 06:32:38;;;;;;;5.30;2.30;;;;;;;3.55;100.00;98346.88;4987099;28;20022;-78
2023/12/06 06:35:05;;;;;;;4.10;1.33;;;;;;;3.63;100.00;98349.53;4987724;28;20014;-76
2023/12/06 06:37:30;;;;;;;1.33;0.98;;;;;;;3.62;100.00;98345.19;5003526;28;20030;-76
2023/12/06 06:39:55;;;;;;;1.75;0.98;;;;;;;3.64;100.00;98349.38;4987173;28;20089;-79
2023/12/06 06:42:20;;;;;;;1.70;0.90;;;;;;;3.73;100.00;98359.03;4997306;28;20262;-77
2023/12/06 06:44:47;;;;;;;1.40;0.82;;;;;;;3.65;100.00;98361.72;4993288;28;20031;-79
2023/12/06 06:47:12;;;;;;;1.60;0.93;;;;;;;3.66;100.00;98350.00;4999034;28;20056;-80
2023/12/06 06:49:39;;;;;;;1.73;0.90;;;;;;;3.74;100.00;98355.34;4976570;28;20031;-78
2023/12/06 06:52:05;;;;;;;1.17;0.93;;;;;;;3.78;100.00;98349.66;4986645;28;20196;-77
2023/12/06 06:54:30;;;;;;;2.83;1.10;;;;;;;3.85;100.00;98366.69;4984852;28;20064;-77
2023/12/06 06:56:55;;;;;;;1.55;0.98;;;;;;;3.80;100.00;98369.03;4982141;28;20100;-77
2023/12/06 06:59:21;;;;;;;4.03;1.30;;;;;;;3.80;100.00;98374.38;4999543;28;20061;-77
2023/12/06 07:01:46;;;;;;;3.90;1.23;;;;;;;3.74;100.00;98360.69;5002895;28;20037;-77
2023/12/06 07:04:11;;;;;;;1.75;0.95;;;;;;;3.79;100.00;98356.69;5003428;28;20327;-77
2023/12/06 07:06:37;;;;;;;1.60;0.88;;;;;;;3.77;100.00;98364.03;5003141;28;20052;-77
2023/12/06 07:09:04;;;;;;;3.50;1.02;;;;;;;3.70;100.00;98362.06;4990903;28;20026;-81
2023/12/06 07:11:30;;;;;;;3.55;0.82;;;;;;;3.86;100.00;98381.75;4999658;23;20101;-62
2023/12/06 07:13:55;;;;;;;2.47;0.55;;;;;;;3.83;100.00;98388.28;4974410;28;20117;-62
2023/12/06 07:16:21;;;;;;;1.60;0.80;;;;;;;3.81;100.00;98394.81;4975602;28;20474;-63
2023/12/06 07:18:49;;;;;;;1.48;0.70;;;;;;;3.83;100.00;98396.31;4973003;28;20026;-62
2023/12/06 07:21:14;;;;;;;1.38;0.80;;;;;;;3.80;100.00;98390.44;4965690;28;20058;-62
2023/12/06 07:23:40;;;;;;;2.20;1.00;;;;;;;3.83;100.00;98385.59;4992179;28;20108;-62
2023/12/06 07:26:06;;;;;;;7.90;1.60;;;;;;;3.89;100.00;98395.63;4974137;28;20076;-63
2023/12/06 07:28:32;;;;;;;5.30;1.73;;;;;;;3.94;100.00;98398.63;4971466;28;20156;-62
2023/12/06 07:30:57;;;;;;;2.70;1.58;;;;;;;3.93;100.00;98404.97;4974283;28;20464;-62
2023/12/06 07:33:22;;;;;;;2.80;1.77;;;;;;;3.84;100.00;98399.81;4975533;28;20049;-62
2023/12/06 07:35:48;;;;;;;4.32;2.17;;;;;;;3.91;100.00;98404.31;4978692;28;20022;-62
2023/12/06 07:38:13;;;;;;;5.93;2.40;;;;;;;3.93;100.00;98412.19;4973351;28;20053;-64
2023/12/06 07:40:38;;;;;;;4.07;2.40;;;;;;;3.92;100.00;98411.31;4971925;28;20034;-62
2023/12/06 07:43:04;;;;;;;5.25;2.80;;;;;;;3.96;100.00;98417.19;4981675;28;20042;-62
2023/12/06 07:45:29;;;;;;;5.40;3.05;;;;;;;4.03;100.00;98417.31;4969560;28;20029;-63
2023/12/06 07:47:54;;;;;;;5.43;3.13;;;;;;;4.03;100.00;98414.66;4975889;28;20034;-62
2023/12/06 07:50:20;;;;;;;7.53;3.63;;;;;;;4.07;100.00;98422.19;4978845;28;20033;-63
2023/12/06 07:52:46;;;;;;;6.55;3.75;;;;;;;4.09;100.00;98424.69;4970996;28;20041;-63
2023/12/06 07:55:12;;;;;;;6.50;4.10;;;;;;;4.10;100.00;98429.03;4974377;28;20026;-63
2023/12/06 07:57:38;;;;;;;8.18;4.68;;;;;;;4.12;100.00;98440.41;4974138;28;20034;-63
2023/12/06 08:00:14;;;;;;;9.85;4.20;;;;;;;4.13;100.00;98434.88;4974778;28;20169;-62
2023/12/06 08:02:39;;;;;;;13.38;5.00;;;;;;;4.10;100.00;98429.03;4971612;28;20034;-56
2023/12/06 08:05:10;;;;;;;7.55;4.20;;;;;;;4.07;100.00;98446.28;4974404;28;20038;-56
2023/12/06 08:07:36;;;;;;;6.75;4.05;;;;;;;4.14;100.00;98447.25;4976169;28;20026;-56
2023/12/06 08:10:10;;;;;;;10.65;5.00;;;;;;;4.16;100.00;98449.75;4993689;28;20022;-56
2023/12/06 08:12:37;;;;;;;7.80;4.65;;;;;;;4.18;100.00;98451.25;4979766;28;20034;-56
2023/12/06 08:15:07;;;;;;;8.93;4.80;;;;;;;4.12;100.00;98453.78;4979552;28;20437;-56
2023/12/06 08:17:32;;;;;;;8.52;5.03;;;;;;;4.08;100.00;98447.09;4962288;28;20417;-56
2023/12/06 08:19:58;;;;;;;9.18;5.53;;;;;;;4.15;100.00;98459.63;4979099;28;20030;-56
2023/12/06 08:22:24;;;;;;;9.60;5.72;;;;;;;4.08;100.00;98449.78;4977857;28;20153;-56
2023/12/06 08:24:50;;;;;;;10.88;5.88;;;;;;;4.15;100.00;98459.63;4973717;28;20365;-56
2023/12/06 08:27:17;;;;;;;10.38;5.82;;;;;;;4.25;100.00;98456.78;4974675;28;20547;-57
2023/12/06 08:29:42;;;;;;;11.00;5.95;;;;;;;4.28;100.00;98459.09;4968577;28;20057;-57
2023/12/06 08:32:08;;;;;;;8.98;4.93;;;;;;;4.21;100.00;98463.47;4977666;28;20080;-58
2023/12/06 08:34:33;;;;;;;9.57;5.20;;;;;;;4.19;100.00;98465.47;4979647;28;20354;-57
2023/12/06 08:36:58;;;;;;;12.48;5.78;;;;;;;4.18;100.00;98470.00;4984327;28;20022;-63
2023/12/06 08:39:24;;;;;;;10.05;5.55;;;;;;;4.12;100.00;98475.22;4977195;28;20048;-62
2023/12/06 08:41:49;;;;;;;9.63;5.32;;;;;;;4.20;100.00;98482.41;4977817;28;20026;-62
2023/12/06 08:44:20;;;;;;;8.00;4.75;;;;;;;4.07;100.00;98470.38;4978584;28;20038;-62
2023/12/06 08:46:45;;;;;;;9.20;5.18;;;;;;;4.14;100.00;98489.28;4990184;28;20446;-63
2023/12/06 08:49:11;;;;;;;7.95;4.35;;;;;;;4.13;100.00;98482.22;4979534;28;20030;-63
2023/12/06 08:51:37;;;;;;;8.68;4.55;;;;;;;4.04;100.00;98485.94;4979749;28;20026;-62
2023/12/06 08:54:16;;;;;;;6.90;4.45;;;;;;;3.96;100.00;98486.78;4991314;28;20469;-63
2023/12/06 08:56:51;;;;;;;8.63;4.60;;;;;;;3.98;100.00;98495.47;4981215;28;20080;-65
2023/12/06 08:59:16;;;;;;;8.38;4.55;;;;;;;3.92;100.00;98491.63;4980371;28;20036;-63
2023/12/06 09:01:43;;;;;;;6.88;4.13;;;;;;;3.94;100.00;98500.31;4995004;28;20030;-57
2023/12/06 09:04:09;;;;;;;10.13;5.20;;;;;;;3.93;100.00;98503.19;5002087;28;20029;-57
2023/12/06 09:06:35;;;;;;;12.98;6.32;;;;;;;3.94;100.00;98499.50;4982007;28;20032;-57
2023/12/06 09:09:02;;;;;;;11.15;5.72;;;;;;;3.98;100.00;98508.00;4978278;28;20026;-57
2023/12/06 09:11:28;;;;;;;13.82;6.65;;;;;;;3.89;100.00;98507.19;4975114;28;20081;-62
2023/12/06 09:13:54;;;;;;;14.40;6.78;;;;;;;4.01;100.00;98515.69;4978686;28;20478;-63
2023/12/06 09:16:19;;;;;;;14.25;7.35;;;;;;;4.04;100.00;98518.06;4969096;28;20139;-63
2023/12/06 09:18:45;;;;;;;15.90;7.30;;;;;;;4.00;100.00;98528.25;4971930;28;20478;-64
2023/12/06 09:21:10;;;;;;;15.52;7.25;;;;;;;4.03;100.00;98535.94;4978714;28;20025;-64
2023/12/06 09:23:36;;;;;;;13.25;6.40;;;;;;;4.00;100.00;98520.22;4971987;28;20033;-64
2023/12/06 09:26:02;;;;;;;15.32;7.43;;;;;;;3.99;100.00;98528.44;4971378;28;20026;-63
2023/12/06 09:28:27;;;;;;;13.65;7.03;;;;;;;4.12;100.00;98534.94;4972513;28;20470;-63
2023/12/06 09:30:53;;;;;;;12.70;6.70;;;;;;;4.17;100.00;98537.13;4977469;28;20442;-63
2023/12/06 09:33:19;;;;;;;12.32;6.78;;;;;;;4.21;100.00;98537.59;4973284;28;20469;-63
2023/12/06 09:35:45;;;;;;;12.90;6.90;;;;;;;4.20;100.00;98527.91;4973666;28;20478;-63
2023/12/06 09:38:12;;;;;;;21.80;9.93;;;;;;;4.24;100.00;98538.09;4972001;28;20038;-63
2023/12/06 09:40:37;;;;;;;24.80;11.10;;;;;;;4.21;100.00;98542.97;4977148;28;20022;-63
2023/12/06 09:43:03;;;;;;;20.20;10.30;;;;;;;4.26;100.00;98540.63;4976617;28;20029;-63
2023/12/06 09:45:29;;;;;;;20.50;9.75;;;;;;;4.24;100.00;98545.28;4972607;28;20109;-63
2023/12/06 09:47:57;;;;;;;22.35;9.70;;;;;;;4.28;100.00;98547.47;4977643;28;20064;-63
2023/12/06 09:50:25;;;;;;;13.02;6.78;;;;;;;4.27;100.00;98551.16;4980108;28;20026;-63
2023/12/06 09:52:52;;;;;;;19.92;8.73;;;;;;;4.27;100.00;98551.16;4979832;28;20076;-64
2023/12/06 09:55:23;;;;;;;13.98;7.43;;;;;;;3.97;100.00;98552.69;4977052;28;20022;-63
2023/12/06 09:57:51;;;;;;;12.75;6.95;;;;;;;4.12;100.00;98556.34;4975675;28;20041;-63
2023/12/06 10:00:17;;;;;;;20.02;9.00;;;;;;;4.08;100.00;98555.00;4977960;28;20049;-63
2023/12/06 10:02:53;;;;;;;22.42;9.35;;;;;;;4.17;100.00;98554.00;4976863;28;20433;-56
2023/12/06 10:05:19;;;;;;;15.25;7.72;;;;;;;4.32;100.00;98553.31;4977737;28;20164;-56
2023/12/06 10:07:46;;;;;;;11.82;6.10;;;;;;;3.97;100.00;98550.00;4976574;28;20096;-56
2023/12/06 10:10:15;;;;;;;14.70;7.40;;;;;;;4.10;100.00;98558.34;4972085;28;20026;-56
2023/12/06 10:12:59;;;;;;;11.82;6.45;;;;;;;4.11;100.00;98564.53;4977430;28;20026;-56
2023/12/06 10:15:35;;;;;;;12.18;6.55;;;;;;;4.16;100.00;98556.84;4991050;28;20026;-57
2023/12/06 10:18:01;;;;;;;14.00;7.50;;;;;;;4.19;100.00;98561.84;4975340;28;20034;-58
2023/12/06 10:20:27;;;;;;;12.60;7.38;;;;;;;4.11;100.00;98560.06;4976549;28;20053;-63
2023/12/06 10:22:52;;;;;;;12.50;7.47;;;;;;;4.01;100.00;98575.44;4976873;28;20116;-62
2023/12/06 10:25:18;;;;;;;13.93;7.38;;;;;;;4.14;100.00;98569.59;4976348;28;20085;-63
2023/12/06 10:27:45;;;;;;;12.32;7.50;;;;;;;4.08;100.00;98579.09;4976874;28;20089;-63
2023/12/06 10:30:11;;;;;;;13.57;7.30;;;;;;;4.04;100.00;98579.63;4973104;28;20477;-63
2023/12/06 10:32:36;;;;;;;15.88;7.88;;;;;;;4.13;100.00;98578.59;4972825;28;20076;-63
2023/12/06 10:35:06;;;;;;;14.50;7.43;;;;;;;4.15;100.00;98582.78;4976450;28;20026;-63
2023/12/06 10:37:32;;;;;;;12.93;7.47;;;;;;;4.13;100.00;98582.13;4973748;28;20030;-64
2023/12/06 10:40:12;;;;;;;15.25;8.10;;;;;;;4.23;100.00;98581.13;4992124;28;20406;-64
2023/12/06 10:42:43;;;;;;;15.88;8.55;;;;;;;4.17;100.00;98578.09;4977574;28;20046;-64
2023/12/06 10:45:10;;;;;;;13.88;7.70;;;;;;;4.24;100.00;98575.56;4977048;28;20019;-63
2023/12/06 10:47:39;;;;;;;16.55;8.15;;;;;;;4.20;100.00;98568.06;4974841;28;20042;-64
2023/12/06 10:50:07;;;;;;;13.98;7.65;;;;;;;3.94;100.00;98580.63;4966753;28;20030;-58
2023/12/06 10:52:35;;;;;;;12.23;7.35;;;;;;;4.06;100.00;98581.13;4987860;28;20077;-57
2023/12/06 10:55:03;;;;;;;14.45;7.50;;;;;;;4.07;100.00;98585.47;4975908;28;20019;-57
2023/12/06 10:57:30;;;;;;;11.83;6.17;;;;;;;4.02;100.00;98582.47;4973481;28;20543;-57
2023/12/06 10:59:57;;;;;;;12.82;7.57;;;;;;;4.08;100.00;98576.44;4975978;28;20528;-57
2023/12/06 11:02:23;;;;;;;14.52;7.35;;;;;;;3.90;100.00;98573.06;4974427;28;20022;-57
2023/12/06 11:04:54;;;;;;;14.90;7.40;;;;;;;4.00;100.00;98571.06;4976203;28;20029;-57
2023/12/06 11:07:41;;;;;;;14.80;8.05;;;;;;;4.08;100.00;98580.94;4975784;28;20180;-57
2023/12/06 11:10:22;;;;;;;11.52;6.68;;;;;;;4.05;100.00;98586.63;4975954;28;20030;-63
2023/12/06 11:13:25;;;;;;;13.55;7.50;;;;;;;4.03;100.00;98591.31;4972240;28;20041;-64
2023/12/06 11:16:28;;;;;;;12.07;6.97;;;;;;;4.07;100.00;98595.34;4974753;28;20164;-64
2023/12/06 11:18:55;;;;;;;12.93;7.72;;;;;;;4.10;100.00;98589.66;4978627;28;20022;-63
2023/12/06 11:21:23;;;;;;;14.57;7.88;;;;;;;4.20;100.00;98593.00;4971298;28;20041;-57
2023/12/06 11:23:50;;;;;;;14.18;8.32;;;;;;;4.30;100.00;98590.16;4980831;28;20057;-64
2023/12/06 11:26:16;;;;;;;16.33;7.80;;;;;;;4.45;100.00;98587.63;4977172;28;20038;-63
2023/12/06 11:28:42;;;;;;;11.77;8.02;;;;;;;4.47;100.00;98582.94;4980290;28;20033;-65
2023/12/06 11:31:12;;;;;;;13.45;6.97;;;;;;;4.71;100.00;98588.22;4974874;28;20073;-57